Time;durP1;ratioP1;P1;durP2;ratioP2;P2;SDS_P1;SDS_P2;PMS_P1;PMS_P2;Temp;Humidity;BMP_temperature;BMP_pressure;BME280_temperature;BME280_humidity;BME280_pressure;Samples;Min_cycle;Max_cycle;Signal;HPM_P1;HPM_P2
2023/03/18 00:01:10;;;;;;;18.80;11.60;;;;;;;13.14;91.92;100356.50;5062308;28;20411;-57
2023/03/18 00:03:38;;;;;;;20.38;12.07;;;;;;;13.12;92.02;100367.09;5074387;28;20053;-56
2023/03/18 00:06:15;;;;;;;20.17;11.38;;;;;;;13.13;92.22;100365.94;5073278;28;20052;-57
2023/03/18 00:08:44;;;;;;;24.00;11.38;;;;;;;13.09;92.00;100369.72;5075059;28;20056;-59
2023/03/18 00:11:13;;;;;;;19.83;12.05;;;;;;;13.14;92.20;100375.06;5074826;28;20483;-56
2023/03/18 00:13:41;;;;;;;21.42;11.75;;;;;;;12.98;92.23;100374.81;5058544;28;20067;-59
2023/03/18 00:16:10;;;;;;;22.02;12.57;;;;;;;12.96;92.01;100370.78;5066202;28;20491;-58
2023/03/18 00:18:39;;;;;;;19.83;11.90;;;;;;;12.93;91.92;100375.03;5077587;28;20052;-55
2023/03/18 00:21:07;;;;;;;21.02;12.00;;;;;;;12.91;92.17;100379.25;5065469;28;20051;-60
2023/03/18 00:23:35;;;;;;;19.05;11.82;;;;;;;12.95;91.70;100383.81;5033416;28;20053;-58
2023/03/18 00:26:03;;;;;;;18.65;12.40;;;;;;;12.94;91.49;100378.59;5065235;28;20048;-59
2023/03/18 00:28:31;;;;;;;24.15;13.15;;;;;;;12.84;91.90;100379.00;5079176;28;20396;-57
2023/03/18 00:31:08;;;;;;;17.30;11.88;;;;;;;12.74;91.98;100373.88;5076092;28;20052;-54
2023/03/18 00:33:36;;;;;;;18.83;12.98;;;;;;;12.79;91.72;100382.78;5077997;28;20057;-57
2023/03/18 00:36:08;;;;;;;17.88;12.23;;;;;;;12.93;91.22;100388.84;5076079;28;20052;-56
2023/03/18 00:38:37;;;;;;;19.30;12.05;;;;;;;12.75;90.92;100389.28;5070972;28;20052;-55
2023/03/18 00:41:10;;;;;;;15.52;10.95;;;;;;;12.64;91.02;100390.84;5075286;28;20053;-58
2023/03/18 00:43:51;;;;;;;16.58;10.73;;;;;;;12.75;90.75;100392.88;5070198;28;20049;-56
2023/03/18 00:46:23;;;;;;;14.90;9.80;;;;;;;12.68;89.92;100389.84;5065584;28;20419;-52
2023/03/18 00:48:52;;;;;;;14.75;8.50;;;;;;;12.51;89.85;100384.44;5077560;28;20053;-55
2023/03/18 00:51:21;;;;;;;13.65;8.70;;;;;;;12.46;89.71;100374.34;5076940;28;20059;-55
2023/03/18 00:53:51;;;;;;;13.52;7.90;;;;;;;12.44;89.31;100382.19;5067945;28;20041;-64
2023/03/18 00:56:21;;;;;;;11.73;8.15;;;;;;;12.59;88.94;100377.25;5065311;28;20522;-63
2023/03/18 00:58:51;;;;;;;13.95;8.43;;;;;;;12.53;88.20;100371.09;5076928;28;20053;-64
2023/03/18 01:01:20;;;;;;;14.20;8.15;;;;;;;12.37;87.73;100381.09;5076001;28;20060;-64
2023/03/18 01:03:48;;;;;;;15.02;8.40;;;;;;;12.54;87.52;100374.66;5060238;28;20041;-56
2023/03/18 01:06:21;;;;;;;11.43;7.07;;;;;;;12.36;88.30;100374.75;5065773;28;20049;-59
2023/03/18 01:08:49;;;;;;;12.15;7.72;;;;;;;12.16;89.02;100380.22;5078867;28;20063;-59
2023/03/18 01:11:17;;;;;;;13.55;7.97;;;;;;;12.38;88.69;100374.41;5070014;28;20063;-57
2023/03/18 01:13:45;;;;;;;15.32;8.38;;;;;;;12.43;88.03;100380.56;5064452;28;20049;-58
2023/03/18 01:16:13;;;;;;;14.10;8.57;;;;;;;12.38;87.69;100375.22;5065897;28;20511;-59
2023/03/18 01:18:40;;;;;;;16.67;8.18;;;;;;;12.40;88.29;100377.66;5058699;28;20045;-58
2023/03/18 01:21:08;;;;;;;11.43;7.38;;;;;;;12.30;88.39;100369.75;5064696;28;20040;-57
2023/03/18 01:23:41;;;;;;;13.73;7.63;;;;;;;12.33;87.95;100369.09;5060785;28;20049;-57
2023/03/18 01:26:09;;;;;;;11.98;7.47;;;;;;;12.33;88.13;100377.38;5075184;28;20044;-59
2023/03/18 01:28:41;;;;;;;11.20;7.55;;;;;;;12.34;88.34;100362.44;5060495;28;20484;-58
2023/03/18 01:31:08;;;;;;;12.88;8.02;;;;;;;12.44;87.48;100356.53;5074574;28;20052;-56
2023/03/18 01:33:36;;;;;;;13.75;7.20;;;;;;;12.39;87.17;100368.59;5077776;28;20059;-57
2023/03/18 01:36:04;;;;;;;14.60;8.70;;;;;;;12.23;87.90;100361.19;5074940;28;20060;-57
2023/03/18 01:38:32;;;;;;;15.30;8.10;;;;;;;12.12;88.62;100359.94;5076955;28;20044;-58
2023/03/18 01:41:10;;;;;;;12.75;7.60;;;;;;;12.03;90.10;100359.19;5075446;28;20055;-58
2023/03/18 01:43:40;;;;;;;13.48;8.27;;;;;;;12.20;89.40;100348.84;5076038;28;20040;-58
2023/03/18 01:46:39;;;;;;;15.15;8.73;;;;;;;12.30;88.39;100354.00;5070150;28;20440;-57
2023/03/18 01:49:16;;;;;;;13.82;7.97;;;;;;;12.40;88.03;100350.03;5040899;28;20059;-57
2023/03/18 01:51:59;;;;;;;14.75;8.02;;;;;;;12.20;88.74;100354.38;5068061;28;20063;-57
2023/03/18 01:54:28;;;;;;;13.55;7.88;;;;;;;12.23;88.76;100352.91;5065664;28;20045;-57
2023/03/18 01:56:56;;;;;;;16.20;8.45;;;;;;;12.05;89.29;100360.47;5069004;28;20059;-57
2023/03/18 01:59:27;;;;;;;13.52;8.15;;;;;;;12.03;89.99;100351.69;5056213;28;20049;-56
2023/03/18 02:02:02;;;;;;;13.80;8.38;;;;;;;12.23;89.57;100358.44;5067936;28;20045;-56
2023/03/18 02:04:36;;;;;;;15.85;8.25;;;;;;;12.19;89.15;100352.75;5076231;28;20385;-58
2023/03/18 02:07:06;;;;;;;13.05;8.07;;;;;;;12.18;89.07;100356.69;5054710;28;20048;-54
2023/03/18 02:09:34;;;;;;;;;;;;;;;12.14;89.04;100352.13;5056763;28;20053;-56
2023/03/18 02:12:03;;;;;;;11.98;7.97;;;;;;;12.13;89.13;100336.72;5050061;28;19944;-57
2023/03/18 02:14:31;;;;;;;12.70;7.30;;;;;;;12.20;88.61;100343.31;5060908;28;20419;-58
2023/03/18 02:17:11;;;;;;;13.07;7.20;;;;;;;12.07;88.67;100343.56;5074383;28;20055;-55
2023/03/18 02:19:53;;;;;;;11.77;6.50;;;;;;;12.00;88.63;100352.38;5057159;28;20045;-56
2023/03/18 02:22:28;;;;;;;11.38;6.03;;;;;;;11.89;89.06;100359.38;5056977;28;20048;-58
2023/03/18 02:25:10;;;;;;;9.40;5.80;;;;;;;11.95;89.01;100360.84;5059938;28;20480;-58
2023/03/18 02:27:41;;;;;;;10.52;5.53;;;;;;;11.87;88.80;100352.59;5071766;28;20403;-58
2023/03/18 02:30:21;;;;;;;8.00;5.32;;;;;;;11.93;88.51;100352.06;5075724;28;20059;-56
2023/03/18 02:32:52;;;;;;;13.25;5.20;;;;;;;11.95;87.85;100344.28;5074513;28;20056;-55
2023/03/18 02:35:19;;;;;;;9.75;4.75;;;;;;;11.76;88.84;100340.28;5052379;28;20056;-57
2023/03/18 02:37:47;;;;;;;9.55;4.90;;;;;;;11.90;88.49;100349.16;5057138;28;20048;-60
2023/03/18 02:40:31;;;;;;;10.48;5.18;;;;;;;11.78;88.79;100354.56;5058882;28;20468;-57
2023/03/18 02:43:31;;;;;;;10.10;5.20;;;;;;;11.96;88.17;100358.88;5074926;28;20052;-58
2023/03/18 02:46:14;;;;;;;8.98;4.82;;;;;;;12.05;87.83;100374.25;5073889;28;20052;-58
2023/03/18 02:48:43;;;;;;;9.10;4.50;;;;;;;12.03;88.03;100371.03;5054570;28;20044;-59
2023/03/18 02:51:13;;;;;;;9.30;4.82;;;;;;;12.06;86.93;100367.63;5067737;28;20054;-57
2023/03/18 02:53:42;;;;;;;8.80;4.88;;;;;;;12.22;86.64;100367.88;5073689;28;20049;-57
2023/03/18 02:56:10;;;;;;;8.05;3.97;;;;;;;12.14;86.96;100360.41;5074415;28;20048;-57
2023/03/18 02:58:41;;;;;;;10.05;4.93;;;;;;;12.00;87.18;100360.66;5081389;28;20039;-60
2023/03/18 03:01:10;;;;;;;10.30;5.05;;;;;;;11.98;87.47;100362.09;5073576;28;20377;-56
2023/03/18 03:03:38;;;;;;;8.40;4.22;;;;;;;12.25;86.85;100359.72;5074765;28;20052;-58
2023/03/18 03:06:06;;;;;;;8.23;3.92;;;;;;;11.98;87.13;100370.38;5072663;28;20040;-58
2023/03/18 03:08:34;;;;;;;6.90;4.25;;;;;;;12.06;87.06;100364.03;5068243;28;20049;-54
2023/03/18 03:11:04;;;;;;;9.15;4.20;;;;;;;12.15;86.92;100362.84;5045067;28;20052;-56
2023/03/18 03:13:34;;;;;;;9.70;3.90;;;;;;;12.02;86.52;100365.84;5075274;28;20052;-58
2023/03/18 03:16:02;;;;;;;10.25;4.38;;;;;;;11.88;87.62;100362.47;5073428;28;20044;-57
2023/03/18 03:18:29;;;;;;;8.88;4.32;;;;;;;12.09;86.61;100366.13;5073859;28;20052;-59
2023/03/18 03:20:57;;;;;;;8.20;3.80;;;;;;;12.06;86.58;100372.31;5074307;28;20063;-60
2023/03/18 03:23:25;;;;;;;6.13;3.42;;;;;;;12.05;86.54;100374.25;5075103;28;20052;-57
2023/03/18 03:25:52;;;;;;;7.90;4.45;;;;;;;12.24;86.21;100380.19;5072016;28;20055;-60
2023/03/18 03:28:20;;;;;;;12.43;4.43;;;;;;;12.23;85.58;100381.34;5074958;28;20052;-58
2023/03/18 03:30:48;;;;;;;9.43;4.35;;;;;;;12.01;86.41;100369.75;5073448;28;20058;-58
2023/03/18 03:33:15;;;;;;;9.05;4.47;;;;;;;12.02;87.00;100374.94;5076273;28;20056;-57
2023/03/18 03:35:43;;;;;;;8.23;4.38;;;;;;;11.97;87.10;100369.59;5070305;28;20064;-59
2023/03/18 03:38:11;;;;;;;12.32;4.75;;;;;;;11.69;88.03;100379.44;5075589;28;20056;-58
2023/03/18 03:40:39;;;;;;;8.75;4.40;;;;;;;11.82;88.46;100375.66;5072993;28;20052;-59
2023/03/18 03:43:06;;;;;;;12.50;4.60;;;;;;;11.94;88.04;100391.53;5071554;28;20064;-55
2023/03/18 03:45:33;;;;;;;10.07;4.47;;;;;;;12.16;87.17;100392.09;5066815;28;20052;-59
2023/03/18 03:48:01;;;;;;;11.70;4.60;;;;;;;12.15;86.44;100384.94;5079001;28;20067;-57
2023/03/18 03:50:28;;;;;;;11.73;4.43;;;;;;;11.87;87.48;100389.25;5077748;28;20044;-56
2023/03/18 03:52:57;;;;;;;8.68;4.32;;;;;;;11.95;87.95;100385.69;5078327;28;20060;-57
2023/03/18 03:55:26;;;;;;;10.68;4.50;;;;;;;11.95;87.76;100384.84;5077362;28;20067;-58
2023/03/18 03:57:55;;;;;;;8.55;4.47;;;;;;;12.11;87.55;100385.94;5063136;28;20057;-57
2023/03/18 04:00:23;;;;;;;7.47;4.13;;;;;;;12.17;87.43;100388.16;5065390;28;20053;-57
2023/03/18 04:02:51;;;;;;;7.53;3.95;;;;;;;12.21;87.70;100385.56;5078807;28;20052;-59
2023/03/18 04:05:22;;;;;;;10.20;4.40;;;;;;;12.12;88.20;100393.06;5078146;28;20044;-57
2023/03/18 04:07:50;;;;;;;9.55;4.30;;;;;;;12.08;88.54;100390.16;5060753;28;20498;-59
2023/03/18 04:10:21;;;;;;;8.05;3.50;;;;;;;12.15;89.32;100384.94;5076104;28;20052;-57
2023/03/18 04:12:49;;;;;;;7.30;3.45;;;;;;;12.13;89.40;100386.41;5078739;28;20048;-56
2023/03/18 04:15:18;;;;;;;9.52;3.63;;;;;;;12.19;89.79;100387.84;5077960;28;20147;-56
2023/03/18 04:17:48;;;;;;;9.75;3.63;;;;;;;12.22;89.91;100387.19;5067191;28;20060;-58
2023/03/18 04:20:17;;;;;;;9.68;3.53;;;;;;;12.13;89.78;100384.44;5042150;28;20488;-60
2023/03/18 04:22:46;;;;;;;6.40;2.97;;;;;;;11.91;91.10;100379.19;5073485;28;20061;-59
2023/03/18 04:25:16;;;;;;;;;;;;;;;12.09;90.83;100382.69;5059117;28;20079;-57
2023/03/18 04:27:43;;;;;;;11.57;3.30;;;;;;;12.25;90.49;100400.31;5077481;28;19921;-63
2023/03/18 04:30:13;;;;;;;8.32;3.45;;;;;;;12.17;90.22;100390.13;5060661;28;20049;-64
2023/03/18 04:32:53;;;;;;;7.57;3.25;;;;;;;12.17;90.60;100382.66;5059653;28;20052;-62
2023/03/18 04:35:24;;;;;;;9.88;3.10;;;;;;;12.32;90.44;100392.34;5075851;28;20415;-64
2023/03/18 04:37:53;;;;;;;10.38;3.28;;;;;;;12.21;90.61;100388.31;5077613;28;20048;-64
2023/03/18 04:40:21;;;;;;;10.85;3.47;;;;;;;12.20;90.85;100387.50;5077088;28;20376;-65
2023/03/18 04:42:49;;;;;;;7.55;3.42;;;;;;;12.24;90.83;100404.22;5058347;28;20051;-65
2023/03/18 04:45:21;;;;;;;7.47;3.55;;;;;;;12.21;91.30;100394.66;5072386;28;20060;-64
2023/03/18 04:47:49;;;;;;;7.70;3.20;;;;;;;12.07;91.40;100404.28;5075821;28;20041;-65
2023/03/18 04:50:18;;;;;;;9.20;3.42;;;;;;;12.05;91.90;100406.56;5072167;28;20048;-67
2023/03/18 04:52:45;;;;;;;6.78;3.30;;;;;;;12.04;91.96;100399.44;5075567;28;20052;-65
2023/03/18 04:55:19;;;;;;;9.00;3.70;;;;;;;12.10;92.34;100400.88;5074372;28;20395;-64
2023/03/18 04:57:49;;;;;;;6.43;3.63;;;;;;;12.16;91.34;100410.59;5075710;28;20418;-65
2023/03/18 05:00:21;;;;;;;9.85;4.03;;;;;;;11.65;93.76;100399.72;5039376;28;20044;-65
2023/03/18 05:02:52;;;;;;;9.40;4.40;;;;;;;11.79;93.71;100397.56;5060580;28;20520;-64
2023/03/18 05:05:22;;;;;;;;;;;;;;;11.65;94.70;100396.94;5077292;28;20065;-66
2023/03/18 05:07:51;;;;;;;10.00;4.80;;;;;;;11.58;94.79;100383.63;5073435;28;19920;-66
2023/03/18 05:10:20;;;;;;;9.47;4.97;;;;;;;11.45;96.28;100386.59;5073907;28;20045;-64
2023/03/18 05:12:47;;;;;;;10.13;4.63;;;;;;;11.62;96.18;100387.38;5073904;28;20060;-63
2023/03/18 05:15:19;;;;;;;10.18;5.03;;;;;;;11.60;94.97;100384.13;5054030;28;20155;-64
2023/03/18 05:17:52;;;;;;;10.80;5.63;;;;;;;11.36;96.07;100383.84;5074370;28;20052;-64
2023/03/18 05:20:20;;;;;;;10.70;4.97;;;;;;;11.48;97.19;100388.69;5056086;28;20045;-64
2023/03/18 05:22:47;;;;;;;8.32;4.93;;;;;;;11.34;96.55;100386.94;5075274;28;20056;-64
2023/03/18 05:25:25;;;;;;;9.88;5.05;;;;;;;11.31;97.62;100387.56;5073951;28;20064;-65
2023/03/18 05:27:53;;;;;;;9.35;5.03;;;;;;;11.48;97.03;100384.00;5076403;28;20403;-65
2023/03/18 05:30:31;;;;;;;9.95;5.38;;;;;;;11.47;96.19;100381.56;5075621;28;20053;-65
2023/03/18 05:32:59;;;;;;;9.60;5.20;;;;;;;11.63;95.47;100383.47;5077028;28;20415;-64
2023/03/18 05:35:46;;;;;;;11.10;5.13;;;;;;;11.43;94.99;100378.66;5075709;28;20048;-65
2023/03/18 05:38:17;;;;;;;12.23;5.30;;;;;;;11.42;96.33;100384.50;5071012;28;20299;-65
2023/03/18 05:40:45;;;;;;;10.20;5.72;;;;;;;11.29;96.33;100384.34;5059341;28;20048;-65
2023/03/18 05:43:20;;;;;;;7.90;5.03;;;;;;;11.29;96.44;100384.34;5068999;28;20045;-64
2023/03/18 05:45:51;;;;;;;11.38;6.38;;;;;;;11.14;97.13;100382.06;5047918;28;20052;-66
2023/03/18 05:48:25;;;;;;;12.45;6.20;;;;;;;11.07;97.54;100379.00;5056648;28;20393;-64
2023/03/18 05:50:57;;;;;;;11.00;6.47;;;;;;;11.18;98.17;100383.06;5045312;28;20059;-64
2023/03/18 05:53:26;;;;;;;9.67;6.63;;;;;;;11.04;99.01;100378.84;5060365;28;20049;-68
2023/03/18 05:56:07;;;;;;;13.55;7.50;;;;;;;11.07;98.87;100384.50;5074757;28;20492;-64
2023/03/18 05:58:35;;;;;;;13.02;7.13;;;;;;;10.98;99.04;100378.19;5073875;28;20044;-65
2023/03/18 06:01:21;;;;;;;14.60;7.20;;;;;;;10.74;99.94;100380.59;5044621;28;20049;-64
2023/03/18 06:03:49;;;;;;;16.42;7.95;;;;;;;10.73;100.00;100386.44;5059091;28;20419;-66
2023/03/18 06:06:18;;;;;;;14.00;8.10;;;;;;;11.02;100.00;100386.63;5064546;28;20056;-64
2023/03/18 06:08:46;;;;;;;15.85;8.40;;;;;;;11.13;100.00;100391.50;5075345;28;20523;-64
2023/03/18 06:11:14;;;;;;;14.32;7.97;;;;;;;11.07;99.58;100395.53;5073878;28;20044;-65
2023/03/18 06:13:42;;;;;;;13.43;8.45;;;;;;;10.97;99.80;100389.53;5060108;28;20049;-64
2023/03/18 06:16:11;;;;;;;12.73;7.40;;;;;;;10.75;100.00;100390.50;5067456;28;20383;-64
2023/03/18 06:18:39;;;;;;;12.25;7.57;;;;;;;10.99;100.00;100393.59;5064737;28;20048;-63
2023/03/18 06:21:08;;;;;;;14.40;7.93;;;;;;;10.94;100.00;100392.94;5062065;28;20041;-64
2023/03/18 06:23:36;;;;;;;14.73;7.15;;;;;;;10.95;100.00;100383.53;5075416;28;20068;-65
2023/03/18 06:26:04;;;;;;;14.02;6.95;;;;;;;11.06;99.57;100380.16;5074810;28;20380;-65
2023/03/18 06:28:36;;;;;;;13.02;6.38;;;;;;;11.24;98.93;100378.97;5076159;28;20048;-64
2023/03/18 06:31:09;;;;;;;13.02;6.30;;;;;;;11.06;98.82;100401.38;5068187;28;20040;-64
2023/03/18 06:33:38;;;;;;;10.90;6.22;;;;;;;11.09;98.69;100400.72;5037871;28;20057;-64
2023/03/18 06:36:07;;;;;;;9.77;6.05;;;;;;;11.13;98.74;100402.50;5046010;28;20052;-63
2023/03/18 06:38:39;;;;;;;8.27;5.40;;;;;;;11.34;97.45;100408.19;5074609;28;20053;-65
2023/03/18 06:41:07;;;;;;;15.80;5.82;;;;;;;11.30;96.42;100407.19;5073827;28;20049;-65
2023/03/18 06:43:39;;;;;;;9.82;4.85;;;;;;;11.44;96.91;100415.31;5075819;28;20450;-65
2023/03/18 06:46:06;;;;;;;13.95;5.65;;;;;;;11.63;95.42;100404.75;5065564;28;20488;-62
2023/03/18 06:48:35;;;;;;;9.88;4.35;;;;;;;11.63;94.31;100402.78;5064701;28;20041;-63
2023/03/18 06:51:02;;;;;;;12.60;4.82;;;;;;;11.48;94.47;100400.53;5061533;28;20040;-63
2023/03/18 06:53:35;;;;;;;8.38;4.07;;;;;;;11.66;94.16;100404.94;5074417;28;20049;-63
2023/03/18 06:56:04;;;;;;;9.40;4.28;;;;;;;11.64;92.95;100412.72;5068213;28;20056;-64
2023/03/18 06:58:42;;;;;;;7.70;3.93;;;;;;;11.60;93.17;100414.47;5071582;28;20048;-64
2023/03/18 07:01:11;;;;;;;9.48;3.92;;;;;;;11.63;93.15;100415.78;5066861;28;20322;-63
2023/03/18 07:03:42;;;;;;;7.63;3.53;;;;;;;11.68;92.80;100412.88;5057963;28;20045;-63
2023/03/18 07:06:11;;;;;;;6.93;3.60;;;;;;;11.75;92.10;100413.97;5060033;28;20052;-64
2023/03/18 07:08:39;;;;;;;7.10;3.03;;;;;;;11.50;92.25;100420.34;5058065;28;20053;-63
2023/03/18 07:11:07;;;;;;;6.18;2.67;;;;;;;11.57;92.25;100425.34;5072417;28;20397;-63
2023/03/18 07:13:38;;;;;;;6.90;3.25;;;;;;;11.73;92.27;100426.50;5073901;28;20059;-62
2023/03/18 07:16:12;;;;;;;6.13;2.58;;;;;;;11.86;91.14;100415.25;5057395;28;20069;-63
2023/03/18 07:18:39;;;;;;;9.93;2.50;;;;;;;11.67;90.52;100412.06;5075372;28;20044;-63
2023/03/18 07:21:08;;;;;;;6.90;2.55;;;;;;;11.71;90.70;100417.72;5071289;28;20384;-63
2023/03/18 07:23:36;;;;;;;6.78;2.35;;;;;;;11.57;91.35;100428.91;5073335;28;20052;-63
2023/03/18 07:26:03;;;;;;;7.38;2.53;;;;;;;11.41;91.92;100429.75;5055995;28;20052;-63
2023/03/18 07:28:31;;;;;;;7.65;1.90;;;;;;;11.58;91.81;100430.53;5075362;28;20060;-63
2023/03/18 07:30:59;;;;;;;5.57;2.20;;;;;;;11.60;91.51;100424.69;5073412;28;20060;-63
2023/03/18 07:33:27;;;;;;;7.70;2.03;;;;;;;11.63;91.27;100432.31;5075160;28;20063;-63
2023/03/18 07:35:55;;;;;;;5.13;2.00;;;;;;;11.71;90.36;100424.06;5073015;28;20069;-63
2023/03/18 07:38:23;;;;;;;5.05;1.80;;;;;;;11.89;89.18;100419.31;5074478;28;20048;-63
2023/03/18 07:40:51;;;;;;;11.32;2.50;;;;;;;11.71;89.53;100417.72;5039731;28;20057;-63
2023/03/18 07:43:18;;;;;;;4.20;1.77;;;;;;;11.65;89.34;100422.59;5074851;28;20057;-63
2023/03/18 07:45:45;;;;;;;4.78;2.00;;;;;;;11.72;89.34;100424.84;5074771;28;20052;-63
2023/03/18 07:48:13;;;;;;;7.85;1.88;;;;;;;11.75;88.64;100424.22;5076273;28;20059;-64
2023/03/18 07:50:40;;;;;;;7.00;1.92;;;;;;;11.74;88.81;100425.34;5074022;28;20057;-63
2023/03/18 07:53:08;;;;;;;6.57;2.03;;;;;;;11.82;88.38;100422.56;5076401;28;20053;-64
2023/03/18 07:55:35;;;;;;;6.47;2.03;;;;;;;11.67;89.03;100419.50;5075133;28;20052;-63
2023/03/18 07:58:03;;;;;;;8.27;1.80;;;;;;;11.55;89.73;100424.84;5076392;28;20056;-64
2023/03/18 08:00:31;;;;;;;6.70;2.08;;;;;;;11.81;89.47;100420.13;5073776;28;20511;-63
2023/03/18 08:02:58;;;;;;;4.22;1.83;;;;;;;11.88;88.98;100420.44;5075100;28;20423;-64
2023/03/18 08:05:26;;;;;;;8.57;2.45;;;;;;;11.89;89.30;100425.63;5074839;28;20052;-64
2023/03/18 08:07:54;;;;;;;7.75;2.40;;;;;;;12.23;88.27;100424.69;5075758;28;20052;-64
2023/03/18 08:10:21;;;;;;;5.60;2.15;;;;;;;12.13;87.93;100425.06;5075161;28;20052;-63
2023/03/18 08:12:48;;;;;;;6.00;2.10;;;;;;;12.18;87.58;100428.47;5075230;28;20052;-63
2023/03/18 08:15:21;;;;;;;6.47;2.00;;;;;;;12.27;88.02;100437.50;5074276;28;20483;-63
2023/03/18 08:17:51;;;;;;;5.88;2.20;;;;;;;12.31;87.30;100443.16;5075240;28;20056;-63
2023/03/18 08:20:19;;;;;;;5.43;1.92;;;;;;;12.24;87.51;100434.59;5075138;28;20053;-64
2023/03/18 08:22:47;;;;;;;8.50;2.38;;;;;;;12.45;87.81;100439.06;5074973;28;20404;-64
2023/03/18 08:25:14;;;;;;;9.43;2.22;;;;;;;12.54;86.72;100447.28;5075438;28;20057;-64
2023/03/18 08:27:42;;;;;;;10.68;2.92;;;;;;;12.47;86.64;100447.00;5073403;28;20060;-63
2023/03/18 08:30:10;;;;;;;6.47;2.28;;;;;;;12.62;86.13;100440.94;5075627;28;20056;-63
2023/03/18 08:32:38;;;;;;;5.03;2.30;;;;;;;12.83;85.31;100450.03;5075728;28;20057;-63
2023/03/18 08:35:06;;;;;;;10.32;2.42;;;;;;;12.98;84.24;100443.13;5077365;28;20060;-63
2023/03/18 08:37:34;;;;;;;7.80;2.05;;;;;;;12.91;83.77;100440.91;5077809;28;20053;-63
2023/03/18 08:40:03;;;;;;;8.25;2.28;;;;;;;13.03;83.81;100440.19;5079510;28;20063;-64
2023/03/18 08:42:31;;;;;;;15.02;2.20;;;;;;;12.98;83.21;100443.13;5077631;28;20414;-63
2023/03/18 08:44:58;;;;;;;7.50;2.20;;;;;;;12.89;84.38;100436.84;5079037;28;20055;-63
2023/03/18 08:47:26;;;;;;;7.03;2.25;;;;;;;12.88;84.27;100435.25;5077641;28;20052;-63
2023/03/18 08:49:53;;;;;;;12.23;2.30;;;;;;;12.93;84.43;100435.84;5076875;28;20048;-64
2023/03/18 08:52:21;;;;;;;5.35;1.85;;;;;;;13.27;83.41;100427.31;5075552;28;20505;-63
2023/03/18 08:54:48;;;;;;;6.30;2.45;;;;;;;13.40;81.68;100431.78;5077644;28;20044;-64
2023/03/18 08:57:16;;;;;;;9.15;2.13;;;;;;;13.41;81.14;100441.69;5076029;28;20063;-64
2023/03/18 08:59:44;;;;;;;8.20;2.22;;;;;;;13.47;80.98;100437.56;5079118;28;20045;-63
2023/03/18 09:02:17;;;;;;;8.90;2.35;;;;;;;13.40;80.90;100439.25;5077730;28;20056;-64
2023/03/18 09:04:45;;;;;;;10.30;2.95;;;;;;;13.46;80.44;100438.69;5078695;28;20053;-63
2023/03/18 09:07:13;;;;;;;12.65;3.20;;;;;;;13.46;80.49;100429.56;5076276;28;20048;-63
2023/03/18 09:09:40;;;;;;;7.97;2.30;;;;;;;13.54;79.95;100432.28;5078971;28;20079;-65
2023/03/18 09:12:12;;;;;;;13.45;2.53;;;;;;;13.65;79.62;100432.66;5074986;28;20053;-64
2023/03/18 09:14:42;;;;;;;10.93;2.40;;;;;;;13.68;79.54;100434.75;5078758;28;20057;-64
2023/03/18 09:17:10;;;;;;;9.38;2.80;;;;;;;13.48;80.41;100438.34;5077323;28;20060;-64
2023/03/18 09:19:37;;;;;;;13.65;3.33;;;;;;;13.70;80.26;100440.78;5078553;28;20055;-63
2023/03/18 09:22:04;;;;;;;9.02;3.03;;;;;;;13.94;78.67;100440.84;5076674;28;20059;-63
2023/03/18 09:24:32;;;;;;;10.93;3.00;;;;;;;13.93;78.00;100438.41;5079024;28;20056;-64
2023/03/18 09:26:59;;;;;;;8.80;2.78;;;;;;;14.01;77.60;100437.50;5076978;28;20060;-64
2023/03/18 09:29:26;;;;;;;12.90;2.80;;;;;;;13.92;78.10;100442.31;5077638;28;20052;-64
2023/03/18 09:31:54;;;;;;;11.50;2.95;;;;;;;14.05;77.98;100430.91;5076573;28;20040;-64
2023/03/18 09:34:22;;;;;;;8.57;2.70;;;;;;;14.22;77.05;100435.47;5078023;28;20074;-63
2023/03/18 09:36:50;;;;;;;8.88;2.33;;;;;;;14.14;76.09;100422.53;5076275;28;20052;-62
2023/03/18 09:39:19;;;;;;;9.73;2.78;;;;;;;14.45;76.01;100429.16;5078536;28;20047;-64
2023/03/18 09:42:02;;;;;;;8.82;2.63;;;;;;;14.38;75.30;100428.13;5075314;28;20052;-64
2023/03/18 09:44:35;;;;;;;8.65;2.35;;;;;;;14.43;75.89;100419.56;5076862;28;20411;-63
2023/03/18 09:47:27;;;;;;;10.38;2.35;;;;;;;14.71;74.24;100414.13;5076602;28;20557;-64
2023/03/18 09:50:15;;;;;;;8.43;2.10;;;;;;;14.54;74.02;100423.47;5076531;28;20063;-63
2023/03/18 09:52:46;;;;;;;11.30;3.38;;;;;;;14.58;74.13;100411.38;5077444;28;20541;-65
2023/03/18 09:55:26;;;;;;;8.85;2.45;;;;;;;14.85;73.69;100422.91;5076596;28;20408;-64
2023/03/18 09:57:56;;;;;;;10.10;2.50;;;;;;;15.01;72.90;100423.81;5077661;28;20075;-63
2023/03/18 10:00:28;;;;;;;9.02;2.20;;;;;;;15.07;72.83;100433.47;5077574;28;20052;-64
2023/03/18 10:03:03;;;;;;;12.63;2.55;;;;;;;15.09;72.15;100429.22;5077045;28;20055;-64
2023/03/18 10:05:33;;;;;;;8.80;2.35;;;;;;;15.22;70.74;100430.78;5075302;28;20400;-63
2023/03/18 10:08:06;;;;;;;7.55;2.30;;;;;;;15.39;69.81;100424.97;5076262;28;20055;-63
2023/03/18 10:10:36;;;;;;;8.52;2.03;;;;;;;15.49;69.62;100424.50;5075660;28;20056;-63
2023/03/18 10:13:12;;;;;;;;;;;;;;;15.50;69.41;100434.41;5077867;28;20051;-63
2023/03/18 10:15:41;;;;;;;7.00;1.83;;;;;;;15.55;69.11;100423.06;5058437;28;19929;-63
2023/03/18 10:18:12;;;;;;;8.65;2.05;;;;;;;15.65;68.33;100432.88;5076182;28;20057;-64
2023/03/18 10:20:55;;;;;;;;;;;;;;;15.41;67.76;100428.22;5076456;28;20075;-64
2023/03/18 10:23:35;;;;;;;9.07;1.80;;;;;;;15.84;67.31;100441.34;5076195;28;19932;-64
2023/03/18 10:26:32;;;;;;;10.57;2.35;;;;;;;15.74;66.23;100445.41;5074646;28;20071;-64
2023/03/18 10:29:02;;;;;;;7.85;2.30;;;;;;;15.70;65.36;100450.09;5076351;28;20053;-64
2023/03/18 10:31:37;;;;;;;11.00;1.77;;;;;;;15.71;65.60;100437.81;5074312;28;20429;-64
2023/03/18 10:34:12;;;;;;;9.15;1.98;;;;;;;15.50;65.66;100442.75;5075396;28;20495;-63
2023/03/18 10:36:48;;;;;;;7.07;2.03;;;;;;;15.48;65.87;100436.75;5074821;28;20052;-64
2023/03/18 10:39:18;;;;;;;9.30;2.03;;;;;;;15.51;66.05;100441.59;5076055;28;20052;-63
2023/03/18 10:41:50;;;;;;;7.40;1.98;;;;;;;15.61;65.51;100435.53;5075274;28;20051;-64
2023/03/18 10:44:31;;;;;;;6.78;1.85;;;;;;;15.52;65.10;100426.56;5076016;28;20072;-64
2023/03/18 10:47:10;;;;;;;7.25;1.98;;;;;;;15.73;64.64;100431.88;5075764;28;20067;-64
2023/03/18 10:49:41;;;;;;;8.20;2.40;;;;;;;15.92;64.48;100443.13;5059073;28;20053;-63
2023/03/18 10:52:42;;;;;;;8.65;2.00;;;;;;;16.16;63.59;100429.09;5073230;28;20056;-64
2023/03/18 10:55:16;;;;;;;10.80;3.22;;;;;;;16.19;62.90;100433.13;5075259;28;20060;-65
2023/03/18 10:57:46;;;;;;;8.18;2.22;;;;;;;16.30;62.65;100432.22;5076365;28;20063;-65
2023/03/18 11:00:29;;;;;;;9.60;2.50;;;;;;;16.41;62.57;100427.75;5075430;28;20052;-63
2023/03/18 11:02:58;;;;;;;5.72;1.80;;;;;;;16.43;61.82;100427.41;5075914;28;20045;-64
2023/03/18 11:05:28;;;;;;;8.68;1.80;;;;;;;16.48;61.07;100429.94;5074724;28;20048;-64
2023/03/18 11:07:59;;;;;;;7.40;1.67;;;;;;;16.55;60.42;100442.03;5058719;28;20056;-65
2023/03/18 11:10:32;;;;;;;14.48;2.25;;;;;;;16.57;60.01;100441.69;5074794;28;20049;-65
2023/03/18 11:13:02;;;;;;;6.43;1.90;;;;;;;16.47;59.77;100431.94;5076527;28;20389;-65
2023/03/18 11:15:35;;;;;;;9.32;2.05;;;;;;;16.39;60.21;100434.81;5074232;28;20071;-65
2023/03/18 11:18:04;;;;;;;9.60;2.78;;;;;;;16.34;60.17;100435.09;5074897;28;20060;-64
2023/03/18 11:20:41;;;;;;;10.25;2.20;;;;;;;16.59;60.31;100431.00;5075326;28;20052;-65
2023/03/18 11:23:16;;;;;;;12.80;2.22;;;;;;;16.63;60.32;100429.91;5076251;28;20068;-64
2023/03/18 11:25:45;;;;;;;8.65;2.00;;;;;;;16.40;60.42;100431.72;5075103;28;20052;-66
2023/03/18 11:28:22;;;;;;;10.57;2.20;;;;;;;16.52;60.95;100423.31;5075119;28;20056;-65
2023/03/18 11:30:54;;;;;;;9.10;2.10;;;;;;;16.41;60.71;100424.16;5073180;28;20049;-65
2023/03/18 11:33:23;;;;;;;9.55;2.13;;;;;;;16.32;59.64;100431.91;5076403;28;20387;-66
2023/03/18 11:35:57;;;;;;;9.05;2.40;;;;;;;16.52;59.33;100426.09;5073378;28;20068;-65
2023/03/18 11:38:30;;;;;;;7.20;1.90;;;;;;;16.50;59.05;100413.69;5075710;28;20384;-63